Time;durP1;ratioP1;P1;durP2;ratioP2;P2;SDS_P1;SDS_P2;PMS_P1;PMS_P2;Temp;Humidity;BMP_temperature;BMP_pressure;BME280_temperature;BME280_humidity;BME280_pressure;Samples;Min_cycle;Max_cycle;Signal;HPM_P1;HPM_P2
2023/02/12 00:02:25;;;;;;;3.35;2.92;;;20.20;69.90;;;;;;5087235;28;20218;-68
2023/02/12 00:04:52;;;;;;;4.70;3.60;;;20.20;70.00;;;;;;5087641;28;20198;-69
2023/02/12 00:07:20;;;;;;;4.88;4.22;;;20.20;70.00;;;;;;5087997;28;20198;-68
2023/02/12 00:09:47;;;;;;;4.40;3.38;;;20.20;70.10;;;;;;5076398;28;20198;-68
2023/02/12 00:12:14;;;;;;;8.85;4.35;;;20.20;70.10;;;;;;5099653;28;20221;-66
2023/02/12 00:14:40;;;;;;;3.53;3.22;;;20.20;70.10;;;;;;5099788;28;20638;-68
2023/02/12 00:17:07;;;;;;;5.32;3.60;;;20.20;70.10;;;;;;5074226;28;20416;-68
2023/02/12 00:19:34;;;;;;;4.95;3.58;;;20.20;70.10;;;;;;5073789;28;20246;-67
2023/02/12 00:22:00;;;;;;;4.93;4.20;;;20.20;70.10;;;;;;5085322;28;20230;-66
2023/02/12 00:24:28;;;;;;;5.22;3.67;;;20.10;70.00;;;;;;5081129;28;20190;-67
2023/02/12 00:26:55;;;;;;;5.22;4.07;;;20.10;70.00;;;;;;5075355;28;20190;-69
2023/02/12 00:29:22;;;;;;;10.32;3.72;;;20.10;70.00;;;;;;5084491;28;20198;-66
2023/02/12 00:31:49;;;;;;;4.15;3.50;;;20.10;70.00;;;;;;5098647;28;20200;-66
2023/02/12 00:34:15;;;;;;;4.15;3.65;;;20.10;70.00;;;;;;5099956;28;20219;-68
2023/02/12 00:36:42;;;;;;;3.67;3.33;;;20.10;70.00;;;;;;5087102;28;20202;-69
2023/02/12 00:39:10;;;;;;;3.92;3.63;;;20.10;69.90;;;;;;5087688;28;20721;-65
2023/02/12 00:41:38;;;;;;;4.43;3.80;;;20.10;69.90;;;;;;5088872;28;20195;-68
2023/02/12 00:44:05;;;;;;;4.65;3.42;;;20.10;69.90;;;;;;5081869;28;20198;-71
2023/02/12 00:46:32;;;;;;;4.35;3.95;;;20.10;69.90;;;;;;5082357;28;20668;-66
2023/02/12 00:48:59;;;;;;;3.92;3.35;;;20.10;69.80;;;;;;5085633;28;20198;-66
2023/02/12 00:51:25;;;;;;;3.78;3.38;;;20.10;69.80;;;;;;5088076;28;20202;-68
2023/02/12 00:53:52;;;;;;;3.60;3.30;;;20.10;69.80;;;;;;5078727;28;20218;-66
2023/02/12 00:56:19;;;;;;;3.55;3.25;;;20.10;69.80;;;;;;5084472;28;20190;-65
2023/02/12 00:58:47;;;;;;;5.05;3.13;;;20.10;69.70;;;;;;5090496;28;20206;-69
2023/02/12 01:01:14;;;;;;;4.10;3.38;;;20.10;69.70;;;;;;5088630;28;20201;-67
2023/02/12 01:03:41;;;;;;;3.83;3.53;;;20.10;69.70;;;;;;5081622;28;20194;-66
2023/02/12 01:06:08;;;;;;;3.00;2.70;;;20.10;69.70;;;;;;5082677;28;20205;-69
2023/02/12 01:08:35;;;;;;;3.90;3.15;;;20.00;69.60;;;;;;5083635;28;20201;-66
2023/02/12 01:11:04;;;;;;;3.85;3.25;;;20.00;69.60;;;;;;5083267;28;20545;-66
2023/02/12 01:13:32;;;;;;;5.35;4.10;;;20.00;69.60;;;;;;5083391;28;20225;-66
2023/02/12 01:16:07;;;;;;;3.88;3.25;;;20.00;69.60;;;;;;5083013;28;20202;-66
2023/02/12 01:18:35;;;;;;;3.55;3.05;;;20.00;69.50;;;;;;5077763;28;20198;-69
2023/02/12 01:21:01;;;;;;;4.00;2.92;;;20.00;69.50;;;;;;5107931;28;20193;-66
2023/02/12 01:23:28;;;;;;;4.25;3.38;;;20.00;69.50;;;;;;5093178;28;20210;-67
2023/02/12 01:25:55;;;;;;;4.65;3.25;;;20.00;70.30;;;;;;5087075;28;20221;-66
2023/02/12 01:28:21;;;;;;;4.57;3.67;;;20.00;69.50;;;;;;5084340;28;20206;-66
2023/02/12 01:30:48;;;;;;;4.20;3.55;;;20.00;69.50;;;;;;5086222;28;20205;-68
2023/02/12 01:33:16;;;;;;;4.20;3.80;;;20.00;69.60;;;;;;5083332;28;20663;-66
2023/02/12 01:35:43;;;;;;;4.75;4.15;;;20.00;69.50;;;;;;5082698;28;20680;-66
2023/02/12 01:38:09;;;;;;;3.10;2.80;;;20.00;69.50;;;;;;5086589;28;20379;-66
2023/02/12 01:40:37;;;;;;;2.90;2.70;;;20.00;69.50;;;;;;5083043;28;20195;-67
2023/02/12 01:43:04;;;;;;;3.92;3.42;;;20.00;69.50;;;;;;5083767;28;20571;-66
2023/02/12 01:45:55;;;;;;;3.67;3.38;;;20.00;69.50;;;;;;5085279;28;20289;-66
2023/02/12 01:48:27;;;;;;;3.70;3.17;;;20.00;69.50;;;;;;5084089;28;20539;-65
2023/02/12 01:50:55;;;;;;;3.53;2.90;;;20.00;69.50;;;;;;5080521;28;20676;-66
2023/02/12 01:53:26;;;;;;;3.88;3.58;;;20.00;69.40;;;;;;5084569;28;20214;-70
2023/02/12 01:55:57;;;;;;;3.17;2.63;;;19.90;69.40;;;;;;5075035;28;20210;-68
2023/02/12 01:58:25;;;;;;;3.70;3.25;;;19.90;69.40;;;;;;5084695;28;20195;-66
2023/02/12 02:00:52;;;;;;;3.42;3.13;;;19.90;69.30;;;;;;5078303;28;20272;-67
2023/02/12 02:03:19;;;;;;;3.38;3.08;;;19.90;69.30;;;;;;5082769;28;20677;-67
2023/02/12 02:05:54;;;;;;;3.70;3.03;;;19.90;69.40;;;;;;5075673;28;20414;-66
2023/02/12 02:08:22;;;;;;;4.72;3.35;;;19.90;69.30;;;;;;5085478;28;20201;-69
2023/02/12 02:10:49;;;;;;;3.50;3.10;;;19.90;69.30;;;;;;5080400;28;20205;-67
2023/02/12 02:16:06;;;;;;;3.47;3.17;;;19.90;69.30;;;;;;5075782;28;20205;-68
2023/02/12 02:18:38;;;;;;;4.38;2.80;;;19.90;69.30;;;;;;5081531;28;20195;-65
2023/02/12 02:21:51;;;;;;;4.68;3.55;;;19.90;69.30;;;;;;5083019;28;20558;-66
2023/02/12 02:24:46;;;;;;;3.55;3.08;;;19.90;69.30;;;;;;5085589;28;20209;-66
2023/02/12 02:27:22;;;;;;;3.85;3.28;;;19.90;69.30;;;;;;5083506;28;20206;-71
2023/02/12 02:30:20;;;;;;;3.75;3.45;;;19.90;69.30;;;;;;5075093;28;20198;-68
2023/02/12 02:32:56;;;;;;;4.85;3.45;;;19.90;69.30;;;;;;5077387;28;20712;-66
2023/02/12 02:35:28;;;;;;;3.67;3.05;;;19.90;69.30;;;;;;5084465;28;20297;-73
2023/02/12 02:38:07;;;;;;;3.15;2.85;;;19.90;69.30;;;;;;5090342;28;20205;-67
2023/02/12 02:40:41;;;;;;;4.47;3.00;;;19.90;69.30;;;;;;5088995;28;20195;-67
2023/02/12 02:43:15;;;;;;;3.97;3.55;;;19.90;69.30;;;;;;5088725;28;20209;-65
2023/02/12 02:45:48;;;;;;;3.55;3.25;;;19.90;69.30;;;;;;5081483;28;20190;-66
2023/02/12 02:48:19;;;;;;;3.60;3.30;;;19.90;69.30;;;;;;5081176;28;20205;-67
2023/02/12 02:50:51;;;;;;;3.95;2.95;;;19.90;69.20;;;;;;5086240;28;20206;-66
2023/02/12 02:53:22;;;;;;;3.40;2.90;;;19.90;69.30;;;;;;5084472;28;20225;-65
2023/02/12 02:55:52;;;;;;;4.55;3.40;;;19.90;69.20;;;;;;5083905;28;20210;-66
2023/02/12 02:58:23;;;;;;;3.88;2.97;;;19.90;69.20;;;;;;5086204;28;20198;-66
2023/02/12 03:00:57;;;;;;;3.63;3.33;;;19.80;69.10;;;;;;5082771;28;20189;-68
2023/02/12 03:03:28;;;;;;;3.55;3.03;;;19.80;69.20;;;;;;5075409;28;20194;-66
2023/02/12 03:06:02;;;;;;;5.18;3.33;;;19.80;69.20;;;;;;5075290;28;20193;-67
2023/02/12 03:08:34;;;;;;;3.35;3.05;;;19.80;69.10;;;;;;5083838;28;20209;-68
2023/02/12 03:11:07;;;;;;;3.13;2.83;;;19.80;69.00;;;;;;5084484;28;20257;-65
2023/02/12 03:13:37;;;;;;;3.65;3.15;;;19.80;69.00;;;;;;5084492;28;20222;-67
2023/02/12 03:16:09;;;;;;;3.30;2.95;;;19.80;69.10;;;;;;5080038;28;20676;-66
2023/02/12 03:18:41;;;;;;;4.15;3.20;;;19.80;69.00;;;;;;5076764;28;20199;-66
2023/02/12 03:21:12;;;;;;;3.15;2.95;;;19.80;69.00;;;;;;5092133;28;20190;-69
2023/02/12 03:23:43;;;;;;;3.40;3.10;;;19.80;69.00;;;;;;5087026;28;20206;-69
2023/02/12 03:26:17;;;;;;;3.42;3.22;;;19.80;69.00;;;;;;5097905;28;20653;-66
2023/02/12 03:28:44;;;;;;;3.58;2.95;;;19.80;69.00;;;;;;5106603;28;20201;-67
2023/02/12 03:31:24;;;;;;;3.55;3.25;;;19.80;69.00;;;;;;5090350;28;20196;-66
2023/02/12 03:34:00;;;;;;;4.00;2.85;;;19.80;69.00;;;;;;5081332;28;20723;-67
2023/02/12 03:36:36;;;;;;;3.22;2.92;;;19.80;69.00;;;;;;5092347;28;20580;-69
2023/02/12 03:39:11;;;;;;;3.08;2.85;;;19.80;69.00;;;;;;5078959;28;20198;-66
2023/02/12 03:41:43;;;;;;;4.25;3.47;;;19.80;69.00;;;;;;5084828;28;20216;-69
2023/02/12 03:44:18;;;;;;;4.10;3.47;;;19.80;69.00;;;;;;5076641;28;20201;-69
2023/02/12 03:46:55;;;;;;;3.60;3.30;;;19.80;69.00;;;;;;5084630;28;20200;-66
2023/02/12 03:49:26;;;;;;;2.72;2.53;;;19.80;69.00;;;;;;5091445;28;20201;-67
2023/02/12 03:51:53;;;;;;;3.00;2.80;;;19.80;69.00;;;;;;5081451;28;20194;-66
2023/02/12 03:54:22;;;;;;;3.60;2.90;;;19.80;69.00;;;;;;5084154;28;20641;-66
2023/02/12 03:56:52;;;;;;;3.13;2.88;;;19.80;69.00;;;;;;5084507;28;20194;-66
2023/02/12 03:59:19;;;;;;;3.42;3.13;;;19.70;68.90;;;;;;5079200;28;20220;-66
2023/02/12 04:01:48;;;;;;;2.80;2.50;;;19.70;68.80;;;;;;5086607;28;20264;-66
2023/02/12 04:04:16;;;;;;;2.72;2.50;;;19.70;68.90;;;;;;5083856;28;20569;-70
2023/02/12 04:06:44;;;;;;;3.45;2.95;;;19.70;68.90;;;;;;5079293;28;20186;-65
2023/02/12 04:09:12;;;;;;;3.80;3.50;;;19.70;68.90;;;;;;5080413;28;20201;-68
2023/02/12 04:11:54;;;;;;;3.13;2.72;;;19.70;68.90;;;;;;5087554;28;20191;-65
2023/02/12 04:14:29;;;;;;;3.42;3.13;;;19.70;68.90;;;;;;5085210;28;20221;-66
2023/02/12 04:17:05;;;;;;;3.03;2.72;;;19.70;68.80;;;;;;5076379;28;20197;-66
2023/02/12 04:19:40;;;;;;;3.90;3.50;;;19.70;68.80;;;;;;5080869;28;20661;-66
2023/02/12 04:22:25;;;;;;;2.80;2.60;;;19.70;68.80;;;;;;5082932;28;20644;-66
2023/02/12 04:25:01;;;;;;;3.72;3.13;;;19.70;68.70;;;;;;5077495;28;20566;-67
2023/02/12 04:27:37;;;;;;;2.95;2.65;;;19.70;68.80;;;;;;5079310;28;20209;-66
2023/02/12 04:30:11;;;;;;;2.60;2.40;;;19.70;68.80;;;;;;5091536;28;20229;-69
2023/02/12 04:32:43;;;;;;;4.93;3.22;;;19.70;68.80;;;;;;5086967;28;20202;-71
2023/02/12 04:35:19;;;;;;;3.40;3.10;;;19.70;68.70;;;;;;5082054;28;20213;-66
2023/02/12 04:37:52;;;;;;;3.67;2.65;;;19.70;68.80;;;;;;5090646;28;20186;-66
2023/02/12 04:40:20;;;;;;;3.05;2.63;;;19.70;68.70;;;;;;5092657;28;20193;-70
2023/02/12 04:42:48;;;;;;;2.95;2.75;;;19.70;68.70;;;;;;5089819;28;20201;-66
2023/02/12 04:45:21;;;;;;;2.95;2.67;;;19.70;68.70;;;;;;5087714;28;20668;-67
2023/02/12 04:47:49;;;;;;;2.85;2.50;;;19.70;68.70;;;;;;5103190;28;20194;-66
2023/02/12 04:50:15;;;;;;;3.13;2.90;;;19.70;69.50;;;;;;5093047;28;20392;-66
2023/02/12 04:52:42;;;;;;;3.20;2.88;;;19.70;68.70;;;;;;5085472;28;20679;-66
2023/02/12 04:55:09;;;;;;;2.70;2.50;;;19.70;68.70;;;;;;5081585;28;20225;-66
2023/02/12 04:57:36;;;;;;;2.95;2.75;;;19.70;68.70;;;;;;5079738;28;20217;-68
2023/02/12 05:00:04;;;;;;;3.47;3.17;;;19.70;68.70;;;;;;5087588;28;20205;-69
2023/02/12 05:02:32;;;;;;;3.20;2.33;;;19.70;68.70;;;;;;5088064;28;20203;-66
2023/02/12 05:05:01;;;;;;;3.75;3.15;;;19.70;68.70;;;;;;5083785;28;20198;-66
2023/02/12 05:07:28;;;;;;;3.13;2.90;;;19.70;68.70;;;;;;5082654;28;20194;-69
2023/02/12 05:09:54;;;;;;;3.53;3.22;;;19.70;68.70;;;;;;5085498;28;20205;-68
2023/02/12 05:12:21;;;;;;;3.13;2.53;;;19.70;68.70;;;;;;5086106;28;20214;-67
2023/02/12 05:14:48;;;;;;;3.25;2.95;;;19.70;68.70;;;;;;5085707;28;20222;-68
2023/02/12 05:17:14;;;;;;;2.97;2.50;;;19.70;68.60;;;;;;5086843;28;20673;-70
2023/02/12 05:19:41;;;;;;;3.60;3.28;;;19.70;68.70;;;;;;5082765;27;20187;-65
2023/02/12 05:22:09;;;;;;;3.42;2.63;;;19.70;68.60;;;;;;5090701;28;20228;-66
2023/02/12 05:24:37;;;;;;;3.03;2.75;;;19.70;68.70;;;;;;5081401;28;20198;-68
2023/02/12 05:27:04;;;;;;;2.67;2.47;;;19.60;68.60;;;;;;5083069;28;20261;-67
2023/02/12 05:29:30;;;;;;;2.90;2.67;;;19.60;68.50;;;;;;5083282;28;20531;-71
2023/02/12 05:31:57;;;;;;;2.90;2.70;;;19.70;68.60;;;;;;5078165;28;20186;-66
2023/02/12 05:34:24;;;;;;;2.60;2.40;;;19.60;68.50;;;;;;5078016;28;20372;-66
2023/02/12 05:36:50;;;;;;;3.10;2.90;;;19.60;68.50;;;;;;5081626;28;20202;-67
2023/02/12 05:39:18;;;;;;;2.78;2.58;;;19.60;68.50;;;;;;5082583;28;20384;-66
2023/02/12 05:41:45;;;;;;;3.72;3.42;;;19.60;68.50;;;;;;5084359;28;20197;-68
2023/02/12 05:44:13;;;;;;;4.32;2.85;;;19.60;68.50;;;;;;5076351;28;20479;-67
2023/02/12 05:46:41;;;;;;;3.28;2.97;;;19.60;68.50;;;;;;5088841;28;20186;-69
2023/02/12 05:49:08;;;;;;;4.20;3.35;;;19.60;68.50;;;;;;5087509;28;20221;-65
2023/02/12 05:51:35;;;;;;;2.72;2.53;;;19.60;68.50;;;;;;5089612;28;20186;-67
2023/02/12 05:54:05;;;;;;;3.22;2.92;;;19.60;68.50;;;;;;5079009;28;20217;-72
2023/02/12 05:56:34;;;;;;;3.40;3.10;;;19.60;68.50;;;;;;5082145;28;20218;-66
2023/02/12 05:59:04;;;;;;;3.08;2.42;;;19.60;68.50;;;;;;5085679;28;20221;-65
2023/02/12 06:01:33;;;;;;;2.92;2.63;;;19.60;68.50;;;;;;5084879;28;20230;-67
2023/02/12 06:04:00;;;;;;;2.67;2.47;;;19.60;68.50;;;;;;5089078;28;20227;-68
2023/02/12 06:06:28;;;;;;;3.15;2.78;;;19.60;68.50;;;;;;5081532;28;20200;-65
2023/02/12 06:08:55;;;;;;;2.83;2.63;;;19.60;68.50;;;;;;5083288;28;20191;-70
2023/02/12 06:11:22;;;;;;;3.20;2.85;;;19.60;68.50;;;;;;5082376;28;20202;-66
2023/02/12 06:13:50;;;;;;;2.78;2.58;;;19.60;68.50;;;;;;5087209;28;20197;-71
2023/02/12 06:16:19;;;;;;;3.15;2.90;;;19.60;68.50;;;;;;5080431;28;20221;-66
2023/02/12 06:18:46;;;;;;;3.10;2.80;;;19.60;68.50;;;;;;5086381;28;20189;-66
2023/02/12 06:21:16;;;;;;;2.92;2.63;;;19.60;68.40;;;;;;5089079;28;20194;-68
2023/02/12 06:23:43;;;;;;;2.55;2.35;;;19.60;68.40;;;;;;5085643;28;20229;-66
2023/02/12 06:26:10;;;;;;;3.83;3.53;;;19.60;68.50;;;;;;5081221;28;20187;-70
2023/02/12 06:28:38;;;;;;;2.90;2.50;;;19.60;68.50;;;;;;5079917;28;20190;-67
2023/02/12 06:31:15;;;;;;;3.20;2.90;;;19.70;68.60;;;;;;5096599;28;20589;-66
2023/02/12 06:33:41;;;;;;;5.40;2.60;;;19.70;68.70;;;;;;5083426;28;20562;-66
2023/02/12 06:36:09;;;;;;;3.30;3.00;;;19.70;68.70;;;;;;5078209;28;20217;-67
2023/02/12 06:38:35;;;;;;;2.50;2.30;;;19.70;68.70;;;;;;5074642;28;20197;-66
2023/02/12 06:41:02;;;;;;;3.15;2.83;;;19.70;68.70;;;;;;5098399;28;20657;-66
2023/02/12 06:43:29;;;;;;;2.88;2.67;;;19.70;68.70;;;;;;5077092;28;20190;-67
2023/02/12 06:45:56;;;;;;;3.20;2.45;;;19.70;68.70;;;;;;5085800;28;20635;-66
2023/02/12 06:48:24;;;;;;;3.58;3.10;;;19.60;68.60;;;;;;5079010;28;20194;-66
2023/02/12 06:50:51;;;;;;;3.00;2.80;;;19.60;68.50;;;;;;5076094;28;20195;-68
2023/02/12 06:53:17;;;;;;;2.83;2.35;;;19.60;68.60;;;;;;5085067;28;20197;-66
2023/02/12 06:55:44;;;;;;;4.25;2.35;;;19.60;68.60;;;;;;5083521;28;20222;-69
2023/02/12 06:58:11;;;;;;;3.25;2.63;;;19.60;68.60;;;;;;5076732;28;20198;-71
2023/02/12 07:00:37;;;;;;;2.75;2.53;;;19.60;68.60;;;;;;5076479;28;20198;-68
2023/02/12 07:03:04;;;;;;;2.88;2.45;;;19.60;68.60;;;;;;5084044;28;20650;-70
2023/02/12 07:05:36;;;;;;;3.05;2.85;;;19.60;68.60;;;;;;5083663;28;20202;-72
2023/02/12 07:08:03;;;;;;;2.38;1.98;;;19.60;68.60;;;;;;5079481;28;20368;-69
2023/02/12 07:10:30;;;;;;;2.72;2.53;;;19.60;68.50;;;;;;5089662;28;20225;-68
2023/02/12 07:12:56;;;;;;;3.30;3.00;;;19.60;68.50;;;;;;5079652;28;20200;-66
2023/02/12 07:15:23;;;;;;;2.75;2.50;;;19.60;68.50;;;;;;5081039;28;20222;-70
2023/02/12 07:17:50;;;;;;;2.53;2.33;;;19.60;68.50;;;;;;5074733;28;20198;-66
2023/02/12 07:20:17;;;;;;;2.50;2.30;;;19.60;68.50;;;;;;5084173;28;20597;-68
2023/02/12 07:22:45;;;;;;;3.15;2.75;;;19.70;68.60;;;;;;5081894;28;20226;-69
2023/02/12 07:25:11;;;;;;;2.70;2.45;;;19.70;68.60;;;;;;5079358;28;20197;-66
2023/02/12 07:27:38;;;;;;;2.40;2.20;;;19.70;68.60;;;;;;5082722;28;20195;-66
2023/02/12 07:30:07;;;;;;;2.25;2.05;;;19.70;68.60;;;;;;5085081;28;20205;-71
2023/02/12 07:32:34;;;;;;;2.20;2.00;;;19.70;68.60;;;;;;5082365;28;20684;-69
2023/02/12 07:35:00;;;;;;;1.90;1.80;;;19.70;68.50;;;;;;5087003;28;20218;-66
2023/02/12 07:37:27;;;;;;;2.80;2.60;;;19.70;69.30;;;;;;5081479;28;20664;-69
2023/02/12 07:39:55;;;;;;;2.83;2.50;;;19.70;68.50;;;;;;5081597;28;20190;-66
2023/02/12 07:42:22;;;;;;;2.38;2.22;;;19.70;68.50;;;;;;5079765;28;20191;-66
2023/02/12 07:44:49;;;;;;;2.75;2.50;;;19.80;68.60;;;;;;5083950;28;20202;-66
2023/02/12 07:47:16;;;;;;;2.50;2.30;;;19.70;68.50;;;;;;5079044;28;20199;-70
2023/02/12 07:49:42;;;;;;;2.50;2.30;;;19.80;68.60;;;;;;5086391;28;20190;-66
2023/02/12 07:52:09;;;;;;;2.40;2.20;;;19.80;68.60;;;;;;5088305;28;20198;-66
2023/02/12 07:54:36;;;;;;;2.22;2.03;;;19.80;68.60;;;;;;5083503;28;20697;-66
2023/02/12 07:57:04;;;;;;;5.05;3.10;;;19.80;68.50;;;;;;5085975;28;20190;-67
2023/02/12 07:59:31;;;;;;;3.60;2.40;;;19.80;68.50;;;;;;5085270;28;20649;-66
2023/02/12 08:01:59;;;;;;;2.72;2.53;;;19.80;68.50;;;;;;5074950;28;20198;-68
2023/02/12 08:04:26;;;;;;;2.40;2.20;;;19.80;68.50;;;;;;5079193;28;20193;-67
2023/02/12 08:06:54;;;;;;;2.30;2.10;;;19.80;68.50;;;;;;5083754;28;20189;-65
2023/02/12 08:09:24;;;;;;;2.40;2.20;;;19.90;68.70;;;;;;5088234;28;20652;-66
2023/02/12 08:11:51;;;;;;;2.58;2.38;;;19.90;68.60;;;;;;5080014;28;20190;-66
2023/02/12 08:14:21;;;;;;;3.40;1.90;;;19.90;68.70;;;;;;5087158;28;20668;-66
2023/02/12 08:16:49;;;;;;;2.38;2.17;;;19.90;68.70;;;;;;5083774;28;20205;-69
2023/02/12 08:19:16;;;;;;;2.90;2.63;;;19.90;68.60;;;;;;5084880;28;20191;-68
2023/02/12 08:21:43;;;;;;;2.70;2.47;;;19.90;68.60;;;;;;5089199;28;20233;-67
2023/02/12 08:24:10;;;;;;;2.90;2.30;;;19.90;68.50;;;;;;5078653;28;20669;-69
2023/02/12 08:26:39;;;;;;;3.13;2.65;;;19.90;68.50;;;;;;5081881;28;20202;-72
2023/02/12 08:29:08;;;;;;;3.10;2.45;;;19.90;68.50;;;;;;5083422;28;20662;-66
2023/02/12 08:31:38;;;;;;;2.40;2.20;;;19.90;68.60;;;;;;5088661;28;20202;-67
2023/02/12 08:34:06;;;;;;;2.30;2.08;;;19.90;68.70;;;;;;5085233;28;20572;-66
2023/02/12 08:36:37;;;;;;;2.60;2.20;;;19.90;68.50;;;;;;5079906;28;20223;-66
2023/02/12 08:39:05;;;;;;;2.53;2.33;;;19.90;68.60;;;;;;5088881;28;20217;-65
2023/02/12 08:41:32;;;;;;;2.40;2.20;;;19.90;68.70;;;;;;5083277;28;20203;-69
2023/02/12 08:44:00;;;;;;;2.33;2.13;;;19.90;68.60;;;;;;5076231;28;20203;-67
2023/02/12 08:46:29;;;;;;;2.20;2.00;;;19.90;68.60;;;;;;5108222;28;20205;-66
2023/02/12 08:48:59;;;;;;;2.30;2.10;;;19.90;68.60;;;;;;5084744;28;20645;-69
2023/02/12 08:51:29;;;;;;;2.50;2.30;;;19.90;68.70;;;;;;5083604;28;20189;-68
2023/02/12 08:53:58;;;;;;;2.25;2.05;;;19.90;68.60;;;;;;5084520;28;20198;-66
2023/02/12 08:56:25;;;;;;;2.20;2.00;;;20.00;68.70;;;;;;5084656;28;20308;-68
2023/02/12 08:58:52;;;;;;;1.98;1.83;;;19.90;68.60;;;;;;5078824;28;20194;-71
2023/02/12 09:01:21;;;;;;;2.17;1.98;;;20.00;68.70;;;;;;5073938;28;20190;-64
2023/02/12 09:03:48;;;;;;;3.25;1.85;;;20.00;68.90;;;;;;5075200;28;20189;-60
2023/02/12 09:06:19;;;;;;;4.60;2.05;;;20.00;68.90;;;;;;5082173;28;20197;-59
2023/02/12 09:08:46;;;;;;;5.22;2.20;;;20.10;68.90;;;;;;5086926;28;20687;-60
2023/02/12 09:11:15;;;;;;;3.83;2.13;;;20.10;68.80;;;;;;5084567;28;20197;-60
2023/02/12 09:13:42;;;;;;;2.42;2.22;;;20.10;68.80;;;;;;5082660;28;20472;-60
2023/02/12 09:16:09;;;;;;;2.45;2.25;;;20.10;69.00;;;;;;5081597;28;20214;-59
2023/02/12 09:18:36;;;;;;;2.08;1.88;;;20.00;68.80;;;;;;5088953;28;20202;-60
2023/02/12 09:21:05;;;;;;;2.15;1.95;;;20.10;69.00;;;;;;5079378;28;20202;-60
2023/02/12 09:23:33;;;;;;;3.85;2.15;;;20.10;69.00;;;;;;5080821;28;20210;-59
2023/02/12 09:26:00;;;;;;;6.50;3.30;;;20.00;69.00;;;;;;5085979;28;20194;-59
2023/02/12 09:28:26;;;;;;;4.18;3.70;;;20.00;69.00;;;;;;5088684;28;20564;-59
2023/02/12 09:30:53;;;;;;;4.28;3.38;;;20.00;69.00;;;;;;5089389;28;20660;-62
2023/02/12 09:33:21;;;;;;;4.38;2.78;;;20.00;69.80;;;;;;5087083;28;20190;-59
2023/02/12 09:35:48;;;;;;;3.63;3.33;;;20.00;69.00;;;;;;5087905;28;20562;-59
2023/02/12 09:38:15;;;;;;;4.53;3.22;;;20.00;69.10;;;;;;5086853;28;20650;-60
2023/02/12 09:40:53;;;;;;;3.30;3.00;;;20.00;69.20;;;;;;5076605;28;20195;-61
2023/02/12 09:43:30;;;;;;;2.30;2.10;;;20.00;69.20;;;;;;5076187;28;20280;-62
2023/02/12 09:46:01;;;;;;;2.83;2.40;;;20.00;69.20;;;;;;5082360;28;20202;-60
2023/02/12 09:48:43;;;;;;;3.40;2.00;;;20.00;69.20;;;;;;5084579;28;20201;-62
2023/02/12 09:51:10;;;;;;;2.20;2.03;;;20.00;69.20;;;;;;5093563;28;20702;-62
2023/02/12 09:53:41;;;;;;;2.45;2.25;;;20.00;69.30;;;;;;5084210;28;20191;-61
2023/02/12 09:56:17;;;;;;;2.30;2.10;;;20.00;69.30;;;;;;5084863;28;20229;-62
2023/02/12 09:58:47;;;;;;;3.00;2.70;;;19.90;69.20;;;;;;5086154;28;20549;-62
2023/02/12 10:01:16;;;;;;;2.40;2.20;;;19.90;70.00;;;;;;5075434;28;20688;-61
2023/02/12 10:03:44;;;;;;;3.20;2.60;;;19.90;69.20;;;;;;5090021;28;20209;-60
2023/02/12 10:06:15;;;;;;;2.65;2.42;;;19.90;69.20;;;;;;5084515;28;20197;-62
2023/02/12 10:08:55;;;;;;;3.17;2.88;;;19.90;69.30;;;;;;5086000;28;20201;-59
2023/02/12 10:11:55;;;;;;;2.67;2.47;;;20.00;69.40;;;;;;5089131;28;20198;-61
2023/02/12 10:14:47;;;;;;;2.40;2.20;;;20.00;69.40;;;;;;5057367;28;20190;-61
2023/02/12 10:17:23;;;;;;;4.60;3.17;;;20.00;69.40;;;;;;5083791;28;20247;-61
2023/02/12 10:20:11;;;;;;;3.33;2.90;;;20.00;69.40;;;;;;5089938;28;20198;-60
2023/02/12 10:22:44;;;;;;;2.53;2.33;;;20.10;69.50;;;;;;5077113;28;20215;-61
2023/02/12 10:25:23;;;;;;;2.40;2.20;;;20.10;69.60;;;;;;5080962;28;20194;-62
2023/02/12 10:27:54;;;;;;;3.03;2.60;;;20.10;69.60;;;;;;5078637;28;20201;-61
2023/02/12 10:30:26;;;;;;;2.63;2.42;;;20.10;69.60;;;;;;5083278;28;20197;-62
2023/02/12 10:32:58;;;;;;;2.80;2.58;;;20.10;69.60;;;;;;5086205;28;20202;-61
2023/02/12 10:35:26;;;;;;;2.55;2.35;;;20.10;69.60;;;;;;5089579;28;20221;-62
2023/02/12 10:37:58;;;;;;;2.70;2.10;;;20.10;69.80;;;;;;5075416;28;20217;-60
2023/02/12 10:40:28;;;;;;;2.40;2.20;;;20.10;69.80;;;;;;5085738;28;20193;-64
2023/02/12 10:42:58;;;;;;;3.78;2.28;;;20.10;70.60;;;;;;5077088;28;20194;-62
2023/02/12 10:45:29;;;;;;;2.88;2.60;;;20.10;69.80;;;;;;5083148;28;20199;-60
2023/02/12 10:48:06;;;;;;;2.40;2.20;;;20.10;69.90;;;;;;5078263;28;20203;-61
2023/02/12 10:50:55;;;;;;;3.20;2.90;;;20.10;69.90;;;;;;5082166;28;20222;-60
2023/02/12 10:53:25;;;;;;;2.53;2.28;;;20.10;70.00;;;;;;5085906;28;20203;-60
2023/02/12 10:56:11;;;;;;;2.30;1.98;;;20.10;70.00;;;;;;5075539;28;20222;-61
2023/02/12 10:58:43;;;;;;;2.58;2.38;;;20.10;70.00;;;;;;5075608;28;20280;-61
2023/02/12 11:01:17;;;;;;;2.97;2.67;;;20.10;70.00;;;;;;5082264;28;20198;-62
2023/02/12 11:03:44;;;;;;;2.70;2.50;;;20.10;70.10;;;;;;5085393;28;20196;-61
2023/02/12 11:06:17;;;;;;;2.20;2.10;;;20.10;70.30;;;;;;5070834;28;20226;-61
2023/02/12 11:08:44;;;;;;;3.50;3.20;;;20.10;70.10;;;;;;5083600;28;20313;-62
2023/02/12 11:11:13;;;;;;;2.42;2.22;;;20.10;70.00;;;;;;5077906;28;20218;-60
2023/02/12 11:13:47;;;;;;;2.70;2.45;;;20.10;70.00;;;;;;5082844;28;20206;-59
2023/02/12 11:16:16;;;;;;;4.63;2.80;;;20.10;70.00;;;;;;5082434;28;20634;-59
2023/02/12 11:18:43;;;;;;;3.15;2.85;;;20.10;70.30;;;;;;5070981;28;20197;-59
2023/02/12 11:21:12;;;;;;;3.05;2.65;;;20.00;70.30;;;;;;5072685;28;20709;-59
2023/02/12 11:23:41;;;;;;;3.10;2.80;;;20.00;70.40;;;;;;5085920;28;20226;-59
2023/02/12 11:26:24;;;;;;;4.28;2.70;;;20.00;70.60;;;;;;5086390;28;20574;-58
2023/02/12 11:28:55;;;;;;;3.80;3.42;;;20.00;71.00;;;;;;5078050;28;20198;-59
2023/02/12 11:31:24;;;;;;;15.15;3.08;;;20.00;71.70;;;;;;5087502;28;20485;-61
2023/02/12 11:34:15;;;;;;;7.10;2.50;;;20.00;72.50;;;;;;5083512;28;20199;-63
2023/02/12 11:36:44;;;;;;;4.07;2.90;;;20.10;72.30;;;;;;5098044;28;20304;-62
2023/02/12 11:39:20;;;;;;;3.55;2.35;;;20.10;72.20;;;;;;5082773;28;20217;-58
2023/02/12 11:41:51;;;;;;;4.93;2.13;;;20.10;72.20;;;;;;5086720;28;20324;-62
2023/02/12 11:44:23;;;;;;;2.63;2.42;;;20.20;72.30;;;;;;5076200;28;20226;-58
2023/02/12 11:46:54;;;;;;;3.17;2.03;;;20.20;72.30;;;;;;5082521;28;20203;-57
2023/02/12 11:49:25;;;;;;;8.52;3.25;;;20.20;72.30;;;;;;5079300;28;20681;-55
2023/02/12 11:51:52;;;;;;;4.13;2.28;;;20.30;73.40;;;;;;5077143;28;20198;-51
2023/02/12 11:54:22;;;;;;;4.45;2.40;;;20.30;72.80;;;;;;5083697;28;20194;-51
2023/02/12 11:56:49;;;;;;;4.53;2.42;;;20.30;72.90;;;;;;5084502;28;20213;-51
2023/02/12 11:59:34;;;;;;;7.45;2.25;;;20.30;73.10;;;;;;5075585;28;20201;-59
2023/02/12 12:02:14;;;;;;;2.15;1.95;;;20.30;73.30;;;;;;5082199;28;20201;-61
2023/02/12 12:04:43;;;;;;;2.92;2.38;;;20.40;73.50;;;;;;5075253;28;20190;-62
2023/02/12 12:07:16;;;;;;;2.13;2.00;;;20.40;73.80;;;;;;5084744;28;20205;-62
2023/02/12 12:09:49;;;;;;;6.82;2.65;;;20.40;73.90;;;;;;5079376;28;20230;-58
2023/02/12 12:12:21;;;;;;;3.03;1.95;;;20.40;74.00;;;;;;5077008;28;20198;-57
2023/02/12 12:20:32;;;;;;;2.25;2.05;;;20.40;74.70;;;;;;5084303;28;20550;-51
2023/02/12 12:23:05;;;;;;;2.40;2.20;;;20.50;74.80;;;;;;5082747;28;20226;-55
2023/02/12 12:25:41;;;;;;;3.33;2.67;;;20.50;74.90;;;;;;5081614;28;20199;-57
2023/02/12 12:28:27;;;;;;;3.17;2.88;;;20.50;75.00;;;;;;5083099;28;20189;-60
2023/02/12 12:31:04;;;;;;;2.50;2.20;;;20.50;75.10;;;;;;5075951;28;20203;-58
2023/02/12 12:33:38;;;;;;;2.67;2.22;;;20.50;75.40;;;;;;5077149;28;20225;-61
2023/02/12 12:36:44;;;;;;;2.10;1.90;;;20.50;75.60;;;;;;5084398;28;20216;-59
2023/02/12 12:39:18;;;;;;;2.65;2.35;;;20.60;75.70;;;;;;5057354;28;20214;-55
2023/02/12 12:42:01;;;;;;;2.30;2.10;;;20.60;75.70;;;;;;5087669;28;20745;-53
2023/02/12 12:44:36;;;;;;;4.18;1.95;;;20.60;75.60;;;;;;5088652;28;20662;-58
2023/02/12 12:47:17;;;;;;;6.38;5.70;;;20.60;75.60;;;;;;5084604;28;20209;-61
2023/02/12 12:50:00;;;;;;;8.15;7.05;;;20.30;70.20;;;;;;5087142;28;20708;-64
2023/02/12 12:52:58;;;;;;;8.52;7.82;;;20.00;68.70;;;;;;5099627;28;20196;-64
2023/02/12 12:55:48;;;;;;;10.82;7.65;;;19.90;67.60;;;;;;5083546;28;20194;-66
2023/02/12 12:58:23;;;;;;;9.82;8.35;;;19.70;66.30;;;;;;5086329;28;20194;-66
2023/02/12 13:01:04;;;;;;;9.35;7.90;;;19.60;65.20;;;;;;5089871;28;20665;-59
2023/02/12 13:04:06;;;;;;;10.88;6.97;;;19.60;64.80;;;;;;5073284;28;20594;-59
2023/02/12 13:06:51;;;;;;;7.53;6.80;;;19.50;63.70;;;;;;5085675;28;20216;-62
2023/02/12 13:09:39;;;;;;;5.35;4.85;;;19.50;63.90;;;;;;5077876;28;20221;-63
2023/02/12 13:12:26;;;;;;;6.72;4.20;;;19.70;64.80;;;;;;5096451;28;20198;-61
2023/02/12 13:15:01;;;;;;;4.88;3.50;;;19.90;65.40;;;;;;5080492;28;20205;-62